createdAt,value
2017-05-21T00:00:33.513Z,0
2017-05-21T00:01:14.516Z,0
2017-05-21T00:01:54.983Z,0
2017-05-21T00:02:35.471Z,0
2017-05-21T00:03:16.707Z,0
2017-05-21T00:03:57.119Z,0
2017-05-21T00:04:37.618Z,0
2017-05-21T00:05:18.091Z,0
2017-05-21T00:05:58.585Z,0
2017-05-21T00:06:39.093Z,0
2017-05-21T00:07:19.552Z,0
2017-05-21T00:08:00.052Z,0
2017-05-21T00:08:40.516Z,0
2017-05-21T00:09:21.019Z,0
2017-05-21T00:10:01.487Z,0
2017-05-21T00:10:41.972Z,0
2017-05-21T00:11:22.483Z,0
2017-05-21T00:12:02.966Z,0
2017-05-21T00:12:43.448Z,0
2017-05-21T00:13:23.941Z,0
2017-05-21T00:14:04.417Z,0
2017-05-21T00:14:44.887Z,0
2017-05-21T00:15:25.368Z,0
2017-05-21T00:16:05.865Z,0
2017-05-21T00:16:46.351Z,0
2017-05-21T00:17:26.857Z,0
2017-05-21T00:18:07.352Z,0
2017-05-21T00:18:47.830Z,0
2017-05-21T00:19:28.340Z,0
2017-05-21T00:20:08.807Z,0
2017-05-21T00:20:49.834Z,0
2017-05-21T00:21:30.315Z,0
2017-05-21T00:22:10.807Z,0
2017-05-21T00:22:51.291Z,0
2017-05-21T00:23:31.830Z,0
2017-05-21T00:24:12.255Z,0
2017-05-21T00:24:52.745Z,0
2017-05-21T00:25:33.268Z,0
2017-05-21T00:26:13.766Z,0
2017-05-21T00:26:54.940Z,0
2017-05-21T00:27:35.424Z,0
2017-05-21T00:28:15.908Z,0
2017-05-21T00:28:56.359Z,0
2017-05-21T00:29:36.843Z,0
2017-05-21T00:30:17.319Z,0
2017-05-21T00:30:58.725Z,0
2017-05-21T00:31:39.186Z,0
2017-05-21T00:34:12.165Z,0
2017-05-21T00:34:53.401Z,0
2017-05-21T00:35:33.893Z,0
2017-05-21T00:38:06.879Z,0
2017-05-21T00:38:48.913Z,0
2017-05-21T00:39:29.895Z,0
2017-05-21T00:42:02.884Z,0
2017-05-21T00:42:43.374Z,0
2017-05-21T00:43:23.874Z,0
2017-05-21T00:44:04.361Z,0
2017-05-21T00:44:44.843Z,0
2017-05-21T00:45:25.345Z,0
2017-05-21T00:46:06.402Z,0
2017-05-21T00:46:46.882Z,0
2017-05-21T00:47:27.344Z,0
2017-05-21T00:48:07.800Z,0
2017-05-21T00:48:48.272Z,0
2017-05-21T00:49:29.606Z,0
2017-05-21T00:50:10.069Z,0
2017-05-21T00:52:43.038Z,0
2017-05-21T00:53:23.507Z,0
2017-05-21T00:54:03.946Z,0
2017-05-21T00:54:44.390Z,0
2017-05-21T00:55:24.838Z,0
2017-05-21T00:57:57.836Z,0
2017-05-21T00:58:38.288Z,0
2017-05-21T00:59:18.759Z,0
2017-05-21T00:59:59.177Z,0
2017-05-21T01:02:38.204Z,0
2017-05-21T01:03:18.676Z,0
2017-05-21T01:03:59.172Z,0
2017-05-21T01:04:39.668Z,0
2017-05-21T01:05:20.170Z,0
2017-05-21T01:06:00.631Z,0
2017-05-21T01:06:42.077Z,0
2017-05-21T01:07:22.550Z,0
2017-05-21T01:08:04.001Z,0
2017-05-21T01:08:44.491Z,0
2017-05-21T01:09:24.983Z,0
2017-05-21T01:10:05.457Z,0
2017-05-21T01:10:45.954Z,0
2017-05-21T01:11:26.435Z,0
2017-05-21T01:14:05.890Z,0
2017-05-21T01:14:46.330Z,0
2017-05-21T01:15:26.809Z,0
2017-05-21T01:16:07.975Z,0
2017-05-21T01:16:48.436Z,0
2017-05-21T01:17:28.920Z,0
2017-05-21T01:18:09.387Z,0
2017-05-21T01:18:49.884Z,0
2017-05-21T01:19:30.376Z,0
2017-05-21T01:20:10.855Z,0
2017-05-21T01:20:51.347Z,0
2017-05-21T01:21:31.792Z,0
2017-05-21T01:22:12.230Z,0
2017-05-21T01:22:52.722Z,0
2017-05-21T01:25:20.622Z,0
2017-05-21T01:26:01.083Z,0
2017-05-21T01:28:35.090Z,0
2017-05-21T01:29:15.578Z,0
2017-05-21T01:29:56.050Z,0
2017-05-21T01:30:36.570Z,0
2017-05-21T01:31:17.053Z,0
2017-05-21T01:31:57.567Z,0
2017-05-21T01:32:38.016Z,0
2017-05-21T01:33:18.486Z,0
2017-05-21T01:34:00.506Z,0
2017-05-21T01:34:40.974Z,0
2017-05-21T01:35:21.428Z,0
2017-05-21T01:36:01.874Z,0
2017-05-21T01:38:14.611Z,0
2017-05-21T01:38:55.088Z,0
2017-05-21T01:39:35.572Z,0
2017-05-21T01:40:16.063Z,0
2017-05-21T01:40:56.557Z,0
2017-05-21T01:41:37.052Z,0
2017-05-21T01:42:17.512Z,0
2017-05-21T01:42:57.995Z,0
2017-05-21T01:43:38.425Z,0
2017-05-21T01:44:18.884Z,0
2017-05-21T01:46:56.961Z,0
2017-05-21T01:47:37.432Z,0
2017-05-21T01:48:17.921Z,0
2017-05-21T01:48:58.405Z,0
2017-05-21T01:49:38.868Z,0
2017-05-21T01:50:19.364Z,0
2017-05-21T01:50:59.858Z,0
2017-05-21T01:51:40.342Z,0
2017-05-21T01:52:20.819Z,0
2017-05-21T01:53:01.261Z,0
2017-05-21T01:53:41.740Z,0
2017-05-21T01:54:22.230Z,0
2017-05-21T01:55:02.726Z,0
2017-05-21T01:55:43.228Z,0
2017-05-21T01:58:16.215Z,0
2017-05-21T01:58:56.709Z,0
2017-05-21T01:59:37.209Z,0
2017-05-21T02:00:17.685Z,0
2017-05-21T02:00:58.166Z,0
2017-05-21T02:01:38.639Z,0
2017-05-21T02:02:19.116Z,0
2017-05-21T02:02:59.573Z,0
2017-05-21T02:03:40.035Z,0
2017-05-21T02:04:20.471Z,0
2017-05-21T02:05:00.938Z,0
2017-05-21T02:05:41.378Z,0
2017-05-21T02:06:21.827Z,0
2017-05-21T02:08:39.631Z,0
2017-05-21T02:09:20.136Z,0
2017-05-21T02:10:00.588Z,0
2017-05-21T02:10:41.077Z,0
2017-05-21T02:11:21.557Z,0
2017-05-21T02:12:02.028Z,0
2017-05-21T02:12:43.208Z,0
2017-05-21T02:13:23.704Z,0
2017-05-21T02:14:04.179Z,0
2017-05-21T02:14:44.674Z,0
2017-05-21T02:15:26.126Z,0
2017-05-21T02:16:06.609Z,0
2017-05-21T02:16:47.090Z,0
2017-05-21T02:17:27.564Z,0
2017-05-21T02:18:08.040Z,0
2017-05-21T02:18:48.518Z,0
2017-05-21T02:19:29.544Z,0
2017-05-21T02:20:10.027Z,0
2017-05-21T02:20:50.514Z,0
2017-05-21T02:21:31.715Z,0
2017-05-21T02:22:13.138Z,0
2017-05-21T02:22:53.632Z,0
2017-05-21T02:23:34.117Z,0
2017-05-21T02:24:14.604Z,0
2017-05-21T02:24:55.077Z,0
2017-05-21T02:25:35.571Z,0
2017-05-21T02:26:16.068Z,0
2017-05-21T02:26:56.552Z,0
2017-05-21T02:27:37.021Z,0
2017-05-21T02:28:17.505Z,0
2017-05-21T02:28:57.988Z,0
2017-05-21T02:29:38.469Z,0
2017-05-21T02:30:19.539Z,0
2017-05-21T02:31:00.010Z,0
2017-05-21T02:33:38.129Z,0
2017-05-21T02:34:18.630Z,0
2017-05-21T02:34:59.107Z,0
2017-05-21T02:35:40.238Z,0
2017-05-21T02:36:20.699Z,0
2017-05-21T02:37:02.053Z,0
2017-05-21T02:37:42.537Z,0
2017-05-21T02:38:23.039Z,0
2017-05-21T02:39:03.502Z,0
2017-05-21T02:39:44.930Z,0
2017-05-21T02:40:25.378Z,0
2017-05-21T02:41:05.821Z,0
2017-05-21T02:41:46.308Z,0
2017-05-21T02:42:26.777Z,0
2017-05-21T02:43:07.274Z,0
2017-05-21T02:43:47.795Z,0
2017-05-21T02:44:28.279Z,0
2017-05-21T02:45:08.741Z,0
2017-05-21T02:45:49.243Z,0
2017-05-21T02:46:29.719Z,0
2017-05-21T02:47:10.218Z,0
2017-05-21T02:49:27.998Z,0
2017-05-21T02:50:08.480Z,0
2017-05-21T02:50:49.013Z,0
2017-05-21T02:51:29.438Z,0
2017-05-21T02:52:09.921Z,0
2017-05-21T02:52:50.417Z,0
2017-05-21T02:53:30.906Z,0
2017-05-21T02:54:11.404Z,0
2017-05-21T02:54:51.888Z,0
2017-05-21T02:55:32.381Z,0
2017-05-21T02:56:12.869Z,0
2017-05-21T02:56:53.346Z,0
2017-05-21T02:57:33.832Z,0
2017-05-21T02:58:14.380Z,0
2017-05-21T02:58:54.831Z,0
2017-05-21T02:59:35.325Z,0
2017-05-21T03:00:16.833Z,0
2017-05-21T03:00:57.309Z,0
2017-05-21T03:01:37.786Z,0
2017-05-21T03:02:18.236Z,0
2017-05-21T03:02:58.744Z,0
2017-05-21T03:03:39.227Z,0
2017-05-21T03:04:19.702Z,0
2017-05-21T03:05:00.180Z,0
2017-05-21T03:05:40.679Z,0
2017-05-21T03:06:21.135Z,0
2017-05-21T03:07:01.623Z,0
2017-05-21T03:07:42.128Z,0
2017-05-21T03:08:22.603Z,0
2017-05-21T03:09:03.102Z,0
2017-05-21T03:09:44.068Z,0
2017-05-21T03:10:24.534Z,0
2017-05-21T03:11:05.002Z,0
2017-05-21T03:11:46.274Z,0
2017-05-21T03:12:26.748Z,0
2017-05-21T03:13:07.236Z,0
2017-05-21T03:13:48.512Z,0
2017-05-21T03:14:28.993Z,0
2017-05-21T03:15:09.477Z,0
2017-05-21T03:15:49.959Z,0
2017-05-21T03:16:30.445Z,0
2017-05-21T03:17:10.935Z,0
2017-05-21T03:17:51.412Z,0
2017-05-21T03:18:31.897Z,0
2017-05-21T03:19:12.365Z,0
2017-05-21T03:19:53.579Z,0
2017-05-21T03:20:34.021Z,0
2017-05-21T03:21:14.487Z,0
2017-05-21T03:21:54.920Z,0
2017-05-21T03:24:33.034Z,0
2017-05-21T03:25:13.490Z,0
2017-05-21T03:25:53.936Z,0
2017-05-21T03:26:34.387Z,0
2017-05-21T03:29:13.481Z,0
2017-05-21T03:29:53.956Z,0
2017-05-21T03:30:34.379Z,0
2017-05-21T03:31:14.832Z,0
2017-05-21T03:31:55.286Z,0
2017-05-21T03:32:35.727Z,0
2017-05-21T03:35:08.742Z,5
2017-05-21T03:35:49.215Z,5
2017-05-21T03:36:29.696Z,5
2017-05-21T03:37:10.215Z,5
2017-05-21T03:37:50.647Z,5
2017-05-21T03:38:31.146Z,5
2017-05-21T03:39:11.655Z,5
2017-05-21T03:39:52.131Z,5
2017-05-21T03:40:32.601Z,5
2017-05-21T03:41:13.049Z,5
2017-05-21T03:41:53.518Z,10
2017-05-21T03:42:33.992Z,10
2017-05-21T03:43:14.412Z,10
2017-05-21T03:43:54.842Z,10
2017-05-21T03:44:35.263Z,10
2017-05-21T03:45:15.737Z,10
2017-05-21T03:45:56.150Z,10
2017-05-21T03:46:36.579Z,10
2017-05-21T03:47:17.050Z,10
2017-05-21T03:47:57.528Z,10
2017-05-21T03:48:37.946Z,15
2017-05-21T03:49:19.300Z,15
2017-05-21T03:51:32.021Z,15
2017-05-21T03:52:12.498Z,15
2017-05-21T03:52:52.995Z,15
2017-05-21T03:53:33.479Z,15
2017-05-21T03:54:13.958Z,15
2017-05-21T03:54:54.460Z,20
2017-05-21T03:55:34.955Z,20
2017-05-21T03:56:16.322Z,20
2017-05-21T03:56:56.813Z,20
2017-05-21T03:57:37.296Z,20
2017-05-21T03:58:17.805Z,20
2017-05-21T03:58:58.291Z,20
2017-05-21T03:59:38.749Z,20
2017-05-21T04:00:19.235Z,25
2017-05-21T04:00:59.724Z,25
2017-05-21T04:01:40.210Z,25
2017-05-21T04:02:20.661Z,25
2017-05-21T04:03:01.147Z,25
2017-05-21T04:03:41.605Z,25
2017-05-21T04:04:22.104Z,25
2017-05-21T04:05:02.586Z,25
2017-05-21T04:05:43.061Z,30
2017-05-21T04:06:23.536Z,30
2017-05-21T04:07:03.998Z,30
2017-05-21T04:07:44.472Z,30
2017-05-21T04:08:24.949Z,30
2017-05-21T04:09:05.440Z,30
2017-05-21T04:09:45.919Z,30
2017-05-21T04:10:26.407Z,30
2017-05-21T04:11:06.883Z,35
2017-05-21T04:11:47.371Z,35
2017-05-21T04:12:27.873Z,35
2017-05-21T04:13:08.330Z,35
2017-05-21T04:15:21.097Z,35
2017-05-21T04:16:02.370Z,35
2017-05-21T04:16:42.835Z,40
2017-05-21T04:17:23.318Z,40
2017-05-21T04:18:03.809Z,40
2017-05-21T04:18:44.297Z,40
2017-05-21T04:19:25.546Z,40
2017-05-21T04:20:06.041Z,40
2017-05-21T04:20:46.583Z,40
2017-05-21T04:21:27.073Z,40
2017-05-21T04:22:07.550Z,45
2017-05-21T04:22:48.020Z,45
2017-05-21T04:23:28.513Z,45
2017-05-21T04:24:08.995Z,45
2017-05-21T04:24:49.467Z,45
2017-05-21T04:27:28.256Z,50
2017-05-21T04:28:08.798Z,50
2017-05-21T04:28:49.208Z,50
2017-05-21T04:29:30.468Z,50
2017-05-21T04:30:10.964Z,55
2017-05-21T04:30:51.453Z,55
2017-05-21T04:31:31.895Z,55
2017-05-21T04:32:12.381Z,55
2017-05-21T04:32:52.871Z,55
2017-05-21T04:33:33.353Z,60
2017-05-21T04:35:46.061Z,60
2017-05-21T04:36:26.542Z,60
2017-05-21T04:37:07.055Z,60
2017-05-21T04:37:47.523Z,65
2017-05-21T04:38:27.965Z,70
2017-05-21T04:39:10.291Z,80
2017-05-21T04:39:50.767Z,85
2017-05-21T04:40:31.244Z,95
2017-05-21T04:41:11.713Z,95
2017-05-21T04:41:52.208Z,100
2017-05-21T04:42:32.687Z,100
2017-05-21T04:43:13.138Z,100
2017-05-21T04:43:53.588Z,100
2017-05-21T04:44:34.012Z,100
2017-05-21T04:45:14.457Z,105
2017-05-21T04:47:32.258Z,105
2017-05-21T04:48:12.669Z,110
2017-05-21T04:48:53.119Z,110
2017-05-21T04:49:33.584Z,110
2017-05-21T04:50:14.024Z,110
2017-05-21T04:50:54.490Z,115
2017-05-21T04:51:34.977Z,115
2017-05-21T04:52:15.463Z,115
2017-05-21T04:54:48.452Z,120
2017-05-21T04:55:28.945Z,120
2017-05-21T04:56:09.379Z,125
2017-05-21T04:56:50.649Z,125
2017-05-21T04:57:31.136Z,125
2017-05-21T04:58:11.582Z,125
2017-05-21T04:58:52.025Z,125
2017-05-21T04:59:32.484Z,125
2017-05-21T05:02:06.476Z,135
2017-05-21T05:02:46.957Z,135
2017-05-21T05:03:27.453Z,135
2017-05-21T05:04:07.960Z,135
2017-05-21T05:04:48.514Z,135
2017-05-21T05:05:28.945Z,140
2017-05-21T05:06:09.432Z,140
2017-05-21T05:06:49.943Z,140
2017-05-21T05:07:30.434Z,140
2017-05-21T05:08:10.909Z,140
2017-05-21T05:08:51.381Z,145
2017-05-21T05:09:31.862Z,145
2017-05-21T05:10:12.308Z,145
2017-05-21T05:10:53.574Z,145
2017-05-21T05:11:34.022Z,145
2017-05-21T05:12:15.070Z,145
2017-05-21T05:12:55.553Z,150
2017-05-21T05:15:13.353Z,150
2017-05-21T05:15:53.836Z,150
2017-05-21T05:16:34.317Z,150
2017-05-21T05:17:15.565Z,150
2017-05-21T05:17:56.062Z,155
2017-05-21T05:18:36.547Z,150
2017-05-21T05:19:17.028Z,150
2017-05-21T05:19:57.508Z,155
2017-05-21T05:20:37.999Z,160
2017-05-21T05:21:18.509Z,160
2017-05-21T05:21:58.996Z,160
2017-05-21T05:22:39.485Z,160
2017-05-21T05:23:19.979Z,165
2017-05-21T05:24:00.457Z,170
2017-05-21T05:24:40.943Z,165
2017-05-21T05:25:21.418Z,165
2017-05-21T05:27:59.562Z,175
2017-05-21T05:28:39.973Z,175
2017-05-21T05:29:20.534Z,175
2017-05-21T05:30:00.985Z,180
2017-05-21T05:30:41.406Z,180
2017-05-21T05:31:21.921Z,180
2017-05-21T05:32:02.321Z,180
2017-05-21T05:32:42.770Z,185
2017-05-21T05:33:23.301Z,185
2017-05-21T05:34:03.777Z,185
2017-05-21T05:34:44.229Z,190
2017-05-21T05:37:17.260Z,195
2017-05-21T05:37:57.708Z,195
2017-05-21T05:38:38.178Z,195
2017-05-21T05:39:18.659Z,200
2017-05-21T05:39:59.140Z,200
2017-05-21T05:40:39.626Z,200
2017-05-21T05:41:20.107Z,205
2017-05-21T05:42:00.587Z,205
2017-05-21T05:42:41.096Z,205
2017-05-21T05:43:21.564Z,205
2017-05-21T05:45:39.675Z,210
2017-05-21T05:46:20.166Z,215
2017-05-21T05:47:00.630Z,215
2017-05-21T05:47:41.119Z,215
2017-05-21T05:48:21.611Z,215
2017-05-21T05:49:02.090Z,215
2017-05-21T05:49:42.582Z,215
2017-05-21T05:50:23.075Z,215
2017-05-21T05:51:03.506Z,220
2017-05-21T05:51:43.990Z,220
2017-05-21T05:52:24.381Z,225
2017-05-21T05:53:04.853Z,225
2017-05-21T05:53:45.309Z,225
2017-05-21T05:54:25.813Z,230
2017-05-21T05:55:06.264Z,230
2017-05-21T05:55:46.720Z,230
2017-05-21T05:56:27.160Z,235
2017-05-21T05:58:44.969Z,240
2017-05-21T05:59:25.454Z,240
2017-05-21T06:00:05.940Z,245
2017-05-21T06:00:46.401Z,245
2017-05-21T06:01:26.906Z,250
2017-05-21T06:02:07.388Z,250
2017-05-21T06:02:47.887Z,250
2017-05-21T06:03:28.383Z,255
2017-05-21T06:04:08.878Z,255
2017-05-21T06:04:49.365Z,260
2017-05-21T06:05:29.815Z,260
2017-05-21T06:06:10.316Z,265
2017-05-21T06:06:50.806Z,265
2017-05-21T06:07:31.275Z,265
2017-05-21T06:08:11.763Z,270
2017-05-21T06:08:52.248Z,270
2017-05-21T06:09:32.756Z,275
2017-05-21T06:10:13.188Z,275
2017-05-21T06:12:41.083Z,280
2017-05-21T06:13:21.527Z,280
2017-05-21T06:14:01.960Z,280
2017-05-21T06:14:42.405Z,280
2017-05-21T06:15:22.845Z,285
2017-05-21T06:16:03.281Z,285
2017-05-21T06:16:43.730Z,290
2017-05-21T06:17:24.186Z,290
2017-05-21T06:18:04.691Z,295
2017-05-21T06:18:45.114Z,295
2017-05-21T06:19:25.555Z,300
2017-05-21T06:20:05.979Z,305
2017-05-21T06:20:46.434Z,305
2017-05-21T06:21:26.951Z,305
2017-05-21T06:22:07.406Z,310
2017-05-21T06:22:47.858Z,310
2017-05-21T06:23:28.331Z,315
2017-05-21T06:24:08.774Z,315
2017-05-21T06:24:49.199Z,320
2017-05-21T06:25:29.688Z,320
2017-05-21T06:26:10.140Z,325
2017-05-21T06:26:50.642Z,325
2017-05-21T06:27:31.095Z,330
2017-05-21T06:29:59.065Z,335
2017-05-21T06:30:39.477Z,340
2017-05-21T06:31:19.987Z,340
2017-05-21T06:32:00.477Z,345
2017-05-21T06:32:40.960Z,345
2017-05-21T06:33:21.468Z,350
2017-05-21T06:34:01.942Z,350
2017-05-21T06:34:42.420Z,360
2017-05-21T06:35:22.888Z,360
2017-05-21T06:36:03.339Z,360
2017-05-21T06:38:16.081Z,375
2017-05-21T06:38:56.533Z,375
2017-05-21T06:41:29.599Z,385
2017-05-21T06:42:10.058Z,385
2017-05-21T06:42:50.567Z,390
2017-05-21T06:45:03.266Z,405
2017-05-21T06:45:43.766Z,410
2017-05-21T06:46:24.227Z,415
2017-05-21T06:47:04.739Z,415
2017-05-21T06:47:45.115Z,420
2017-05-21T06:48:25.623Z,425
2017-05-21T06:49:06.091Z,425
2017-05-21T06:49:46.531Z,425
2017-05-21T06:50:26.972Z,430
2017-05-21T06:51:07.433Z,435
2017-05-21T06:51:47.900Z,440
2017-05-21T06:54:05.689Z,455
2017-05-21T06:54:46.179Z,460
2017-05-21T06:55:26.643Z,465
2017-05-21T06:56:07.135Z,470
2017-05-21T06:56:47.657Z,470
2017-05-21T06:57:28.133Z,470
2017-05-21T06:58:08.571Z,475
2017-05-21T06:58:49.017Z,480
2017-05-21T06:59:29.480Z,480
2017-05-21T07:02:02.541Z,500
2017-05-21T07:02:42.986Z,505
2017-05-21T07:03:23.476Z,510
2017-05-21T07:05:51.414Z,525
2017-05-21T07:06:31.916Z,530
2017-05-21T07:07:12.415Z,530
2017-05-21T07:07:52.912Z,540
2017-05-21T07:08:33.395Z,545
2017-05-21T07:10:46.097Z,565
2017-05-21T07:11:26.588Z,570
2017-05-21T07:12:07.032Z,575
2017-05-21T07:12:47.484Z,580
2017-05-21T07:13:27.962Z,580
2017-05-21T07:14:08.416Z,585
2017-05-21T07:14:48.900Z,590
2017-05-21T07:15:29.369Z,595
2017-05-21T07:16:09.814Z,605
2017-05-21T07:18:47.949Z,625
2017-05-21T07:19:28.399Z,630
2017-05-21T07:20:08.869Z,630
2017-05-21T07:22:27.027Z,655
2017-05-21T07:23:07.482Z,660
2017-05-21T07:23:47.944Z,670
2017-05-21T07:24:28.371Z,670
2017-05-21T07:25:08.828Z,685
2017-05-21T07:27:41.795Z,705
2017-05-21T07:28:22.292Z,715
2017-05-21T07:29:02.734Z,725
2017-05-21T07:31:15.439Z,760
2017-05-21T07:31:55.911Z,770
2017-05-21T07:32:36.369Z,790
2017-05-21T07:33:16.829Z,795
2017-05-21T07:33:57.306Z,815
2017-05-21T07:34:37.784Z,840
2017-05-21T07:35:18.254Z,865
2017-05-21T07:35:58.715Z,890
2017-05-21T07:36:39.198Z,945
2017-05-21T07:37:19.678Z,1060
2017-05-21T07:38:00.148Z,1745
2017-05-21T07:40:17.948Z,3825
2017-05-21T07:40:58.443Z,2595
2017-05-21T07:41:38.923Z,2200
2017-05-21T07:42:19.409Z,1965
2017-05-21T07:42:59.896Z,1810
2017-05-21T07:43:40.389Z,1500
2017-05-21T07:44:20.877Z,1070
2017-05-21T07:45:01.315Z,730
2017-05-21T07:45:41.798Z,545
2017-05-21T07:48:09.727Z,480
2017-05-21T07:48:50.223Z,475
2017-05-21T07:49:30.686Z,475
2017-05-21T07:50:11.175Z,470
2017-05-21T07:50:51.616Z,470
2017-05-21T07:51:32.083Z,475
2017-05-21T07:52:12.524Z,475
2017-05-21T07:52:53.809Z,480
2017-05-21T07:53:34.250Z,495
2017-05-21T07:54:14.714Z,500
2017-05-21T07:54:55.210Z,505
2017-05-21T07:57:07.931Z,535
2017-05-21T07:57:48.428Z,550
2017-05-21T07:58:28.921Z,555
2017-05-21T07:59:09.385Z,570
2017-05-21T08:01:27.236Z,810
2017-05-21T08:02:07.736Z,815
2017-05-21T08:02:48.184Z,745
2017-05-21T08:03:28.648Z,700
2017-05-21T08:04:09.749Z,700
2017-05-21T08:04:50.966Z,745
2017-05-21T08:07:03.752Z,790
2017-05-21T08:07:44.189Z,835
2017-05-21T08:08:24.642Z,890
2017-05-21T08:09:05.134Z,945
2017-05-21T08:09:45.617Z,910
2017-05-21T08:10:26.059Z,930
2017-05-21T08:11:06.521Z,955
2017-05-21T08:11:47.482Z,960
2017-05-21T08:12:27.933Z,1010
2017-05-21T08:13:08.412Z,1075
2017-05-21T08:13:48.867Z,1145
2017-05-21T08:14:29.327Z,1215
2017-05-21T08:15:09.843Z,1220
2017-05-21T08:15:50.307Z,1290
2017-05-21T08:16:30.749Z,1380
2017-05-21T08:17:11.237Z,1460
2017-05-21T08:17:51.707Z,1575
2017-05-21T08:20:04.450Z,1440
2017-05-21T08:20:44.920Z,1210
2017-05-21T08:21:25.429Z,985
2017-05-21T08:22:05.876Z,725
2017-05-21T08:22:46.338Z,680
2017-05-21T08:25:04.430Z,830
2017-05-21T08:25:44.938Z,970
2017-05-21T08:26:25.426Z,1105
2017-05-21T08:27:05.843Z,1275
2017-05-21T08:29:33.792Z,1890
2017-05-21T08:30:14.280Z,2120
2017-05-21T08:32:52.444Z,2475
2017-05-21T08:33:32.948Z,2460
2017-05-21T08:34:13.429Z,2410
2017-05-21T08:34:53.975Z,2400
2017-05-21T08:35:34.990Z,2490
2017-05-21T08:36:15.517Z,2540
2017-05-21T08:36:55.969Z,2470
2017-05-21T08:37:36.437Z,2460
2017-05-21T08:38:16.977Z,2510
2017-05-21T08:38:58.412Z,2445
2017-05-21T08:39:38.880Z,1850
2017-05-21T08:42:07.725Z,470
2017-05-21T08:42:48.209Z,460
2017-05-21T08:43:28.693Z,450
2017-05-21T08:44:09.224Z,450
2017-05-21T08:44:49.706Z,450
2017-05-21T08:45:30.750Z,455
2017-05-21T08:46:11.218Z,460
2017-05-21T08:46:51.690Z,460
2017-05-21T08:47:32.156Z,460
2017-05-21T08:48:12.608Z,460
2017-05-21T08:48:53.081Z,460
2017-05-21T08:49:33.515Z,475
2017-05-21T08:50:13.973Z,510
2017-05-21T08:50:54.490Z,920
2017-05-21T08:51:34.952Z,1665
2017-05-21T08:52:15.441Z,2310
2017-05-21T08:52:55.910Z,2535
2017-05-21T08:53:36.390Z,2555
2017-05-21T08:55:49.152Z,2615
2017-05-21T08:56:29.623Z,2685
2017-05-21T08:57:10.066Z,335
2017-05-21T08:57:50.531Z,300
2017-05-21T08:58:30.968Z,270
2017-05-21T09:00:48.759Z,2720
2017-05-21T09:01:29.211Z,2600
2017-05-21T09:02:09.647Z,2760
2017-05-21T09:02:50.116Z,2735
2017-05-21T09:03:30.586Z,2755
2017-05-21T09:04:11.068Z,2850
2017-05-21T09:04:51.513Z,2870
2017-05-21T09:07:19.770Z,2955
2017-05-21T09:08:00.244Z,2955
2017-05-21T09:08:40.726Z,2935
2017-05-21T09:09:21.174Z,2945
2017-05-21T09:10:01.644Z,2915
2017-05-21T09:10:42.093Z,2860
2017-05-21T09:11:22.544Z,2825
2017-05-21T09:12:02.994Z,2865
2017-05-21T09:12:43.447Z,2855
2017-05-21T09:14:56.494Z,2765
2017-05-21T09:15:36.990Z,2720
2017-05-21T09:16:17.424Z,2740
2017-05-21T09:18:45.380Z,2825
2017-05-21T09:19:25.821Z,2835
2017-05-21T09:20:06.344Z,2860
2017-05-21T09:20:46.832Z,2795
2017-05-21T09:23:14.796Z,2710
2017-05-21T09:25:52.931Z,2995
2017-05-21T09:26:33.414Z,2985
2017-05-21T09:27:13.900Z,2960
2017-05-21T09:27:54.384Z,2930
2017-05-21T09:30:32.494Z,1635
2017-05-21T09:31:12.972Z,1170
2017-05-21T09:31:53.450Z,710
2017-05-21T09:32:33.933Z,685
2017-05-21T09:33:14.434Z,665
2017-05-21T09:33:54.899Z,650
2017-05-21T09:34:35.393Z,640
2017-05-21T09:35:15.868Z,630
2017-05-21T09:35:56.377Z,630
2017-05-21T09:36:36.840Z,630
2017-05-21T09:37:17.339Z,635
2017-05-21T09:37:57.796Z,655
2017-05-21T09:38:38.250Z,675
2017-05-21T09:41:06.263Z,1630
2017-05-21T09:41:47.218Z,2330
2017-05-21T09:42:27.690Z,2590
2017-05-21T09:43:08.150Z,3040
2017-05-21T09:43:48.595Z,3155
2017-05-21T09:44:29.049Z,3160
2017-05-21T09:47:02.126Z,2985
2017-05-21T09:47:42.589Z,3070
2017-05-21T09:48:23.071Z,3140
2017-05-21T09:50:50.997Z,3295
2017-05-21T09:51:31.479Z,3320
2017-05-21T09:52:11.926Z,3305
2017-05-21T09:52:52.388Z,3320
2017-05-21T09:53:32.851Z,3285
2017-05-21T09:54:13.346Z,3260
2017-05-21T09:56:26.115Z,3185
2017-05-21T09:57:06.583Z,3100
2017-05-21T09:57:47.068Z,955
2017-05-21T09:58:27.569Z,3145
2017-05-21T09:59:08.047Z,3290
2017-05-21T09:59:48.486Z,1210
2017-05-21T10:00:28.979Z,2835
2017-05-21T10:01:10.077Z,3410
2017-05-21T10:01:50.536Z,3395
2017-05-21T10:04:28.641Z,3270
2017-05-21T10:07:06.755Z,3375
2017-05-21T10:07:47.209Z,3340
2017-05-21T10:08:27.686Z,3205
2017-05-21T10:09:08.227Z,3200
2017-05-21T10:11:46.250Z,3370
2017-05-21T10:14:24.285Z,3210
2017-05-21T10:15:04.726Z,3305
2017-05-21T10:17:17.537Z,3115
2017-05-21T10:17:57.975Z,3270
2017-05-21T10:18:38.456Z,3280
2017-05-21T10:19:18.951Z,2985
2017-05-21T10:19:59.441Z,2020
2017-05-21T10:20:39.945Z,1000
2017-05-21T10:23:12.976Z,420
2017-05-21T10:23:53.428Z,415
2017-05-21T10:24:33.916Z,415
2017-05-21T10:25:14.426Z,405
2017-05-21T10:25:54.898Z,395
2017-05-21T10:26:35.427Z,380
2017-05-21T10:27:15.859Z,375
2017-05-21T10:27:56.317Z,365
2017-05-21T10:28:36.805Z,360
2017-05-21T10:29:17.267Z,350
2017-05-21T10:29:57.722Z,345
2017-05-21T10:30:38.208Z,340
2017-05-21T10:31:18.650Z,340
2017-05-21T10:31:59.116Z,340
2017-05-21T10:34:11.852Z,370
2017-05-21T10:34:52.292Z,385
2017-05-21T10:35:32.762Z,405
2017-05-21T10:36:13.174Z,420
2017-05-21T10:38:46.206Z,445
2017-05-21T10:41:24.301Z,425
2017-05-21T10:42:04.746Z,450
2017-05-21T10:42:45.205Z,615
2017-05-21T10:43:25.707Z,1575
2017-05-21T10:44:06.122Z,2765
2017-05-21T10:44:46.591Z,3495
2017-05-21T10:45:27.019Z,3515
2017-05-21T10:46:07.453Z,3530
2017-05-21T10:46:47.909Z,3530
2017-05-21T10:47:28.400Z,3530
2017-05-21T10:48:08.865Z,1970
2017-05-21T10:48:49.265Z,1355
2017-05-21T10:49:29.713Z,2310
2017-05-21T10:52:07.854Z,3335
2017-05-21T10:52:48.374Z,3395
2017-05-21T10:53:28.877Z,3360
2017-05-21T10:54:09.347Z,3360
2017-05-21T10:54:49.817Z,3420
2017-05-21T10:55:30.271Z,3545
2017-05-21T10:56:10.739Z,3600
2017-05-21T10:56:51.190Z,3465
2017-05-21T10:57:31.675Z,3470
2017-05-21T10:58:12.156Z,3525
2017-05-21T10:58:52.595Z,3700
2017-05-21T10:59:33.070Z,3665
2017-05-21T11:02:01.079Z,3740
2017-05-21T11:02:41.512Z,3715
2017-05-21T11:03:21.985Z,3705
2017-05-21T11:06:00.121Z,3710
2017-05-21T11:06:40.542Z,3695
2017-05-21T11:07:21.006Z,3705
2017-05-21T11:09:59.131Z,3850
2017-05-21T11:10:39.612Z,3820
2017-05-21T11:11:20.080Z,3780
2017-05-21T11:12:00.560Z,3780
2017-05-21T11:12:41.011Z,3760
2017-05-21T11:13:21.481Z,3705
2017-05-21T11:14:01.938Z,3665
2017-05-21T11:14:42.460Z,3565
2017-05-21T11:15:22.883Z,3430
2017-05-21T11:16:03.360Z,3225
2017-05-21T11:16:43.809Z,3570
2017-05-21T11:17:24.265Z,3615
2017-05-21T11:18:04.749Z,3565
2017-05-21T11:20:32.698Z,3725
2017-05-21T11:21:13.189Z,3730
2017-05-21T11:21:53.661Z,3690
2017-05-21T11:22:34.112Z,3740
2017-05-21T11:25:07.168Z,3810
2017-05-21T11:25:47.598Z,3825
2017-05-21T11:26:28.095Z,3840
2017-05-21T11:28:45.911Z,3655
2017-05-21T11:29:26.371Z,3675
2017-05-21T11:30:06.860Z,3745
2017-05-21T11:32:24.719Z,3805
2017-05-21T11:33:05.163Z,3795
2017-05-21T11:33:45.675Z,3715
2017-05-21T11:34:26.072Z,3635
2017-05-21T11:35:06.608Z,3555
2017-05-21T11:35:47.030Z,3555
2017-05-21T11:36:27.525Z,3590
2017-05-21T11:37:07.951Z,3555
2017-05-21T11:37:48.385Z,3585
2017-05-21T11:38:28.848Z,3585
2017-05-21T11:39:09.440Z,3645
2017-05-21T11:39:49.874Z,3635
2017-05-21T11:40:30.321Z,3585
2017-05-21T11:41:10.839Z,3585
2017-05-21T11:43:49.011Z,850
2017-05-21T11:44:29.499Z,675
2017-05-21T11:45:10.012Z,630
2017-05-21T11:45:50.515Z,615
2017-05-21T11:46:31.018Z,590
2017-05-21T11:47:11.488Z,575
2017-05-21T11:47:51.993Z,565
2017-05-21T11:48:33.060Z,555
2017-05-21T11:49:13.590Z,560
2017-05-21T11:49:54.067Z,565
2017-05-21T11:50:34.571Z,555
2017-05-21T11:51:15.048Z,550
2017-05-21T11:51:55.537Z,545
2017-05-21T11:54:23.524Z,545
2017-05-21T11:55:03.989Z,525
2017-05-21T11:55:44.459Z,500
2017-05-21T11:58:22.610Z,520
2017-05-21T11:59:03.139Z,520
2017-05-21T11:59:43.550Z,525